^^
Station Historical Data
Daily Summary for April 12, 2017 Units:  Metric    English   Both
« Previous Day
Next Day »
Daily Weekly Monthly Yearly Custom
  High: Low: Average:
Temperature: 31.7 °C 14.3 °C 23.4 °C
Dew Point: 15.2 °C 3 °C 9.1 °C
Humidity: 72% 29% 42%
Wind Speed: 20.9km/h 0km/h 10.3km/h
Wind Gust: 30.6km/h - -
Wind- - SSW
Pressure: 1009.4 hPa 1002.9 hPa -
Precipitation: 0.51 mm    
Historical Graphs
 
 
Tabular Data for April 12, 2017
Time Temperature Dew Point Pressure Wind Wind Speed Wind Gust Humidity Rainfall Rate (Hourly) solar Conditions
10:59 30.6 °C 12 °C 1006 hPa North 13 km/h 19.3 km/h 32% 0 mm 772.0 W/m2
11:04 30.9 °C 12.3 °C 1005.6 hPa Calm     32% 0 mm 858.0 W/m2
11:08 31.3 °C 12.1 °C 1005.6 hPa NNW 9.7 km/h 22.5 km/h 31% 0 mm 916.0 W/m2
11:14 31.7 °C 12 °C 1005.6 hPa Calm   17.7 km/h 30% 0 mm 265.0 W/m2
11:19 31.1 °C 11.5 °C 1005.3 hPa NNW 6.4 km/h 12.9 km/h 30% 0 mm 271.0 W/m2
11:23 30.7 °C 11.6 °C 1005 hPa NW 9.7 km/h 19.3 km/h 31% 0 mm 264.0 W/m2
11:28 30.8 °C 11.7 °C 1005 hPa NW 11.1 km/h 19.3 km/h 31% 0 mm 267.0 W/m2
11:35 30.9 °C 11.8 °C 1005 hPa North 13 km/h 22.5 km/h 31% 0 mm 919.0 W/m2
11:44 31.3 °C 11.1 °C 1004.6 hPa WNW 7.9 km/h 12.9 km/h 29% 0 mm 292.0 W/m2
13:19 29.1 °C 11.6 °C 1002.9 hPa ESE 6.4 km/h 17.7 km/h 34% 0 mm 151.0 W/m2
13:34 28.2 °C 11.3 °C 1003.6 hPa Calm     35% 0 mm 37.0 W/m2
13:44 27 °C 14.4 °C 1003.9 hPa NW 13 km/h 30.6 km/h 46% 0 mm 70.0 W/m2
13:59 25.8 °C 15.2 °C 1002.9 hPa SW 13 km/h 13 km/h 52% 0.51 mm 172.0 W/m2
14:13 26.3 °C 13.4 °C 1002.9 hPa SW 16.3 km/h 22.5 km/h 45% 0.51 mm 120.0 W/m2
14:19 26 °C 13.5 °C 1003.9 hPa Calm     46% 0.51 mm 63.0 W/m2
14:39 26.1 °C 13.6 °C 1003.9 hPa West 11.1 km/h 19.3 km/h 46% 0.51 mm 243.0 W/m2
14:49 25.5 °C 13.4 °C 1003.6 hPa SW 11.1 km/h 12.9 km/h 47% 0 mm 105.0 W/m2
15:04 24.9 °C 14.1 °C 1003.6 hPa SW 6.4 km/h 9.7 km/h 51% 0 mm 116.0 W/m2
15:19 25.4 °C 11.2 °C 1003.6 hPa SSE 16.3 km/h 19.3 km/h 41% 0 mm 301.0 W/m2
15:29 25.3 °C 11.5 °C 1003.3 hPa SE 13 km/h 16.1 km/h 42% 0 mm 123.0 W/m2
15:51 25.3 °C 11.5 °C 1003.6 hPa SE 11.1 km/h 14.5 km/h 42% 0 mm 114.0 W/m2
16:00 25.6 °C 11.4 °C 1003.9 hPa SE 11.1 km/h 12.9 km/h 41% 0 mm 141.0 W/m2
16:15 25.7 °C 11.5 °C 1003.9 hPa SE 9.7 km/h 14.5 km/h 41% 0 mm 125.0 W/m2
16:25 26.1 °C 11.4 °C 1003.9 hPa SE 9.7 km/h 12.9 km/h 40% 0 mm 193.0 W/m2
16:35 26.4 °C 10.1 °C 1003.9 hPa SE 9.7 km/h 14.5 km/h 36% 0 mm 139.0 W/m2
16:40 26.5 °C 8 °C 1003.6 hPa SE 13 km/h 16.1 km/h 31% 0 mm 116.0 W/m2
17:00 26.3 °C 6.8 °C 1003.6 hPa SSE 16.3 km/h 17.7 km/h 29% 0 mm 49.0 W/m2
17:08 26 °C 7.1 °C 1003.9 hPa South 17.7 km/h 24.1 km/h 30% 0 mm 37.0 W/m2
17:10 25.6 °C 7.2 °C 1003.9 hPa South 13 km/h 16.1 km/h 31% 0 mm 23.0 W/m2
17:25 25.1 °C 7.2 °C 1004.3 hPa South 11.1 km/h 17.7 km/h 32% 0 mm 11.0 W/m2
17:31 24.4 °C 7.1 °C 1004.6 hPa South 11.1 km/h 17.7 km/h 33% 0 mm 7.0 W/m2
17:46 23.4 °C 7.5 °C 1005 hPa South 17.7 km/h 17.7 km/h 36% 0 mm 0.0 W/m2
18:01 22.7 °C 8 °C 1005.3 hPa SSW 16.3 km/h 20.9 km/h 39% 0 mm 0.0 W/m2
18:11 22.1 °C 8.2 °C 1005.6 hPa SSW 16.3 km/h 20.9 km/h 41% 0 mm 0.0 W/m2
18:21 21.7 °C 8.6 °C 1006 hPa SSW 14.3 km/h 17.7 km/h 43% 0 mm 0.0 W/m2
18:36 21.1 °C 8.7 °C 1006.3 hPa SSW 14.3 km/h 16.1 km/h 45% 0 mm 0.0 W/m2
18:51 20.7 °C 8 °C 1006.3 hPa SSW 16.3 km/h 16.3 km/h 44% 0 mm 0.0 W/m2
19:06 20.6 °C 6.5 °C 1006.7 hPa SSW 17.7 km/h 22.5 km/h 40% 0 mm 0.0 W/m2
19:21 20.2 °C 5.8 °C 1006.7 hPa SSW 13 km/h 16.1 km/h 39% 0 mm 0.0 W/m2
19:42 19.9 °C 4.4 °C 1006.7 hPa SSW 11.1 km/h 16.1 km/h 36% 0 mm 0.0 W/m2
19:51 19.7 °C 3 °C 1007 hPa SSW 13 km/h 17.7 km/h 33% 0 mm 0.0 W/m2
20:12 19.3 °C 3.5 °C 1007.3 hPa SSW 4.7 km/h 8 km/h 35% 0 mm 0.0 W/m2
20:27 18.6 °C 3.6 °C 1007.7 hPa Calm     37% 0 mm 0.0 W/m2
20:37 17.8 °C 3.7 °C 1008 hPa Calm     39% 0 mm 0.0 W/m2
20:57 17.8 °C 4.4 °C 1008 hPa SSW 6.4 km/h 11.3 km/h 41% 0 mm 0.0 W/m2
21:07 17.5 °C 4.4 °C 1008.4 hPa Calm     42% 0 mm 0.0 W/m2
21:28 16.9 °C 4.9 °C 1008.4 hPa Calm   3.2 km/h 45% 0 mm 0.0 W/m2
21:44 16.6 °C 4.9 °C 1008.7 hPa Calm     46% 0 mm 0.0 W/m2
22:01 16.6 °C 5.8 °C 1008.7 hPa SSW 16.3 km/h 17.7 km/h 49% 0 mm 0.0 W/m2
22:19 16.5 °C 6.6 °C 1009 hPa SSW 7.9 km/h 14.5 km/h 52% 0 mm 0.0 W/m2
22:34 16.2 °C 6.9 °C 1009 hPa SSW 9.7 km/h 11.3 km/h 54% 0 mm 0.0 W/m2
22:49 15.8 °C 7.8 °C 1009 hPa SSW 14.3 km/h 20.9 km/h 59% 0 mm 0.0 W/m2
23:04 15.2 °C 9.1 °C 1009.4 hPa SSW 20.9 km/h 24.1 km/h 67% 0 mm 0.0 W/m2
23:14 14.7 °C 9.3 °C 1009.4 hPa SSW 17.7 km/h 19.3 km/h 70% 0 mm 0.0 W/m2
23:34 14.5 °C 9.3 °C 1009.4 hPa SSW 13 km/h 16.1 km/h 71% 0 mm 0.0 W/m2
23:44 14.3 °C 9.3 °C 1009 hPa SSW 6.4 km/h 14.5 km/h 72% 0 mm 0.0 W/m2
Canyon Roadhouse, Fishriver Canyon, Namibia
Compliments of Weather Underground - 1.75 mb